createdAt,value
2018-03-03T00:00:45.337Z,978.45
2018-03-03T00:01:45.361Z,978.45
2018-03-03T00:02:45.388Z,978.44
2018-03-03T00:03:45.412Z,978.43
2018-03-03T00:04:45.435Z,978.42
2018-03-03T00:05:45.461Z,978.40
2018-03-03T00:06:45.491Z,978.44
2018-03-03T00:07:45.511Z,978.40
2018-03-03T00:08:45.538Z,978.43
2018-03-03T00:09:45.560Z,978.41
2018-03-03T00:10:45.584Z,978.41
2018-03-03T00:11:45.609Z,978.41
2018-03-03T00:12:45.633Z,978.41
2018-03-03T00:13:45.659Z,978.41
2018-03-03T00:14:45.683Z,978.43
2018-03-03T00:15:45.707Z,978.37
2018-03-03T00:16:45.732Z,978.36
2018-03-03T00:17:45.756Z,978.29
2018-03-03T00:18:45.781Z,978.25
2018-03-03T00:19:45.806Z,978.22
2018-03-03T00:20:45.831Z,978.23
2018-03-03T00:21:45.858Z,978.18
2018-03-03T00:22:45.880Z,978.19
2018-03-03T00:23:45.904Z,978.17
2018-03-03T00:24:45.928Z,978.09
2018-03-03T00:25:45.956Z,978.11
2018-03-03T00:26:45.978Z,978.11
2018-03-03T00:27:46.003Z,978.12
2018-03-03T00:28:46.027Z,978.10
2018-03-03T00:29:46.051Z,978.09
2018-03-03T00:30:46.079Z,978.09
2018-03-03T00:31:46.102Z,978.10
2018-03-03T00:32:46.125Z,978.06
2018-03-03T00:33:46.150Z,978.09
2018-03-03T00:34:46.177Z,978.09
2018-03-03T00:35:46.198Z,978.11
2018-03-03T00:36:46.222Z,978.17
2018-03-03T00:37:46.247Z,978.13
2018-03-03T00:38:46.271Z,978.18
2018-03-03T00:39:46.295Z,978.21
2018-03-03T00:40:46.320Z,978.26
2018-03-03T00:41:46.345Z,978.24
2018-03-03T00:42:46.369Z,978.26
2018-03-03T00:43:46.393Z,978.26
2018-03-03T00:44:46.416Z,978.30
2018-03-03T00:45:46.442Z,978.30
2018-03-03T00:46:46.467Z,978.32
2018-03-03T00:47:46.491Z,978.28
2018-03-03T00:48:46.514Z,978.30
2018-03-03T00:49:46.538Z,978.29
2018-03-03T00:50:46.563Z,978.30
2018-03-03T00:51:46.587Z,978.30
2018-03-03T00:52:46.611Z,978.26
2018-03-03T00:53:46.636Z,978.20
2018-03-03T00:54:46.659Z,978.21
2018-03-03T00:55:46.685Z,978.27
2018-03-03T00:56:46.708Z,978.24
2018-03-03T00:57:46.733Z,978.26
2018-03-03T00:58:46.757Z,978.24
2018-03-03T00:59:46.783Z,978.22
2018-03-03T01:00:46.806Z,978.17
2018-03-03T01:01:46.831Z,978.18
2018-03-03T01:02:46.856Z,978.21
2018-03-03T01:03:46.881Z,978.20
2018-03-03T01:04:46.905Z,978.18
2018-03-03T01:05:46.929Z,978.16
2018-03-03T01:06:46.953Z,978.13
2018-03-03T01:07:46.979Z,978.15
2018-03-03T01:08:47.002Z,978.13
2018-03-03T01:09:47.026Z,978.09
2018-03-03T01:10:47.051Z,978.08
2018-03-03T01:11:47.076Z,978.09
2018-03-03T01:12:47.101Z,978.12
2018-03-03T01:13:47.126Z,978.06
2018-03-03T01:14:47.151Z,978.07
2018-03-03T01:15:47.174Z,978.08
2018-03-03T01:16:47.198Z,978.04
2018-03-03T01:17:47.222Z,978.02
2018-03-03T01:18:47.248Z,978.06
2018-03-03T01:19:47.275Z,978.08
2018-03-03T01:20:47.313Z,978.08
2018-03-03T01:21:47.321Z,978.03
2018-03-03T01:22:47.346Z,977.97
2018-03-03T01:23:47.373Z,978.03
2018-03-03T01:24:47.393Z,978.03
2018-03-03T01:25:47.426Z,977.98
2018-03-03T01:26:47.444Z,977.97
2018-03-03T01:27:47.468Z,977.92
2018-03-03T01:28:47.492Z,977.92
2018-03-03T01:29:47.518Z,977.91
2018-03-03T01:30:47.543Z,977.87
2018-03-03T01:31:47.567Z,977.92
2018-03-03T01:32:47.589Z,977.87
2018-03-03T01:33:47.616Z,977.89
2018-03-03T01:34:47.640Z,977.87
2018-03-03T01:35:47.665Z,977.87
2018-03-03T01:36:47.692Z,977.84
2018-03-03T01:37:47.713Z,977.82
2018-03-03T01:38:47.739Z,977.82
2018-03-03T01:39:47.762Z,977.82
2018-03-03T01:40:47.794Z,977.79
2018-03-03T01:41:47.811Z,977.79
2018-03-03T01:42:47.836Z,977.81
2018-03-03T01:43:47.860Z,977.83
2018-03-03T01:44:47.883Z,977.85
2018-03-03T01:45:47.911Z,977.85
2018-03-03T01:46:47.979Z,977.85
2018-03-03T01:47:47.959Z,977.82
2018-03-03T01:48:47.984Z,977.87
2018-03-03T01:49:48.008Z,977.83
2018-03-03T01:50:48.045Z,977.79
2018-03-03T01:51:48.058Z,977.75
2018-03-03T01:52:48.081Z,977.73
2018-03-03T01:53:48.106Z,977.76
2018-03-03T01:54:48.131Z,977.77
2018-03-03T01:55:48.156Z,977.77
2018-03-03T01:56:48.181Z,977.76
2018-03-03T01:57:48.203Z,977.73
2018-03-03T01:58:48.230Z,977.76
2018-03-03T01:59:48.255Z,977.77
2018-03-03T02:00:48.279Z,977.83
2018-03-03T02:01:48.304Z,977.80
2018-03-03T02:02:48.329Z,977.79
2018-03-03T02:03:48.353Z,977.82
2018-03-03T02:04:48.378Z,977.80
2018-03-03T02:05:48.403Z,977.78
2018-03-03T02:06:48.426Z,977.82
2018-03-03T02:07:48.457Z,977.76
2018-03-03T02:08:48.475Z,977.75
2018-03-03T02:09:48.501Z,977.68
2018-03-03T02:10:48.526Z,977.64
2018-03-03T02:11:48.551Z,977.67
2018-03-03T02:12:48.576Z,977.67
2018-03-03T02:13:48.599Z,977.63
2018-03-03T02:14:48.629Z,977.62
2018-03-03T02:15:48.651Z,977.63
2018-03-03T02:16:48.675Z,977.63
2018-03-03T02:17:48.701Z,977.59
2018-03-03T02:18:48.725Z,977.60
2018-03-03T02:19:48.750Z,977.62
2018-03-03T02:20:48.774Z,977.58
2018-03-03T02:21:48.799Z,977.58
2018-03-03T02:22:48.823Z,977.53
2018-03-03T02:23:48.849Z,977.49
2018-03-03T02:24:48.873Z,977.51
2018-03-03T02:25:48.898Z,977.51
2018-03-03T02:26:48.924Z,977.54
2018-03-03T02:27:48.949Z,977.48
2018-03-03T02:28:48.973Z,977.46
2018-03-03T02:29:48.998Z,977.41
2018-03-03T02:30:49.023Z,977.46
2018-03-03T02:31:49.048Z,977.45
2018-03-03T02:32:49.071Z,977.43
2018-03-03T02:33:49.099Z,977.40
2018-03-03T02:34:49.121Z,977.42
2018-03-03T02:35:49.147Z,977.43
2018-03-03T02:36:49.172Z,977.44
2018-03-03T02:37:49.195Z,977.47
2018-03-03T02:38:49.219Z,977.51
2018-03-03T02:39:49.245Z,977.45
2018-03-03T02:40:49.269Z,977.41
2018-03-03T02:41:49.294Z,977.46
2018-03-03T02:42:49.320Z,977.41
2018-03-03T02:43:49.343Z,977.40
2018-03-03T02:44:49.366Z,977.53
2018-03-03T02:45:49.393Z,977.54
2018-03-03T02:46:49.417Z,977.48
2018-03-03T02:47:49.447Z,977.46
2018-03-03T02:48:49.464Z,977.44
2018-03-03T02:49:49.489Z,977.41
2018-03-03T02:50:49.514Z,977.46
2018-03-03T02:51:49.539Z,977.45
2018-03-03T02:52:49.562Z,977.49
2018-03-03T02:53:49.587Z,977.44
2018-03-03T02:54:49.611Z,977.33
2018-03-03T02:55:49.647Z,977.37
2018-03-03T02:56:49.659Z,977.36
2018-03-03T02:57:49.687Z,977.37
2018-03-03T02:58:49.707Z,977.40
2018-03-03T02:59:49.733Z,977.34
2018-03-03T03:00:49.756Z,977.30
2018-03-03T03:01:49.780Z,977.29
2018-03-03T03:02:49.804Z,977.29
2018-03-03T03:03:49.827Z,977.25
2018-03-03T03:04:49.853Z,977.17
2018-03-03T03:05:49.876Z,977.13
2018-03-03T03:06:49.900Z,977.19
2018-03-03T03:07:49.926Z,977.13
2018-03-03T03:08:49.947Z,977.09
2018-03-03T03:09:49.972Z,977.14
2018-03-03T03:10:49.997Z,977.09
2018-03-03T03:11:50.021Z,977.10
2018-03-03T03:12:50.045Z,977.08
2018-03-03T03:13:50.068Z,977.05
2018-03-03T03:14:50.094Z,977.04
2018-03-03T03:15:50.118Z,977.01
2018-03-03T03:16:50.142Z,977.02
2018-03-03T03:17:50.166Z,977.10
2018-03-03T03:18:50.190Z,977.13
2018-03-03T03:19:50.215Z,977.14
2018-03-03T03:20:50.237Z,977.26
2018-03-03T03:21:50.262Z,977.28
2018-03-03T03:22:50.288Z,977.19
2018-03-03T03:23:50.314Z,977.18
2018-03-03T03:24:50.336Z,977.15
2018-03-03T03:25:50.360Z,977.12
2018-03-03T03:26:50.383Z,977.08
2018-03-03T03:27:50.409Z,977.07
2018-03-03T03:28:50.433Z,976.95
2018-03-03T03:29:50.456Z,976.99
2018-03-03T03:30:50.495Z,976.95
2018-03-03T03:31:50.504Z,976.95
2018-03-03T03:32:50.528Z,976.92
2018-03-03T03:33:50.553Z,976.88
2018-03-03T03:34:50.578Z,976.93
2018-03-03T03:35:50.602Z,976.91
2018-03-03T03:36:50.624Z,976.93
2018-03-03T03:37:50.650Z,976.89
2018-03-03T03:38:50.688Z,976.87
2018-03-03T03:39:50.698Z,976.87
2018-03-03T03:40:50.723Z,976.87
2018-03-03T03:41:50.746Z,976.82
2018-03-03T03:42:50.770Z,976.83
2018-03-03T03:43:50.793Z,976.79
2018-03-03T03:44:50.817Z,976.79
2018-03-03T03:45:50.842Z,976.71
2018-03-03T03:46:50.866Z,976.72
2018-03-03T03:47:50.891Z,976.70
2018-03-03T03:48:50.914Z,976.69
2018-03-03T03:49:50.938Z,976.70
2018-03-03T03:50:50.962Z,976.64
2018-03-03T03:51:50.988Z,976.73
2018-03-03T03:52:51.011Z,976.68
2018-03-03T03:53:56.692Z,976.69
2018-03-03T03:54:51.059Z,976.68
2018-03-03T03:55:51.083Z,976.74
2018-03-03T03:56:51.108Z,976.71
2018-03-03T03:57:51.132Z,976.72
2018-03-03T03:58:51.157Z,976.65
2018-03-03T03:59:51.181Z,976.66
2018-03-03T04:00:51.206Z,976.66
2018-03-03T04:01:51.229Z,976.61
2018-03-03T04:02:51.253Z,976.64
2018-03-03T04:03:51.278Z,976.64
2018-03-03T04:04:51.301Z,976.56
2018-03-03T04:05:51.327Z,976.56
2018-03-03T04:06:51.351Z,976.52
2018-03-03T04:07:51.376Z,976.54
2018-03-03T04:08:51.398Z,976.53
2018-03-03T04:09:51.423Z,976.49
2018-03-03T04:10:51.447Z,976.46
2018-03-03T04:11:51.472Z,976.45
2018-03-03T04:12:51.497Z,976.46
2018-03-03T04:13:51.519Z,976.45
2018-03-03T04:14:51.544Z,976.37
2018-03-03T04:15:51.569Z,976.38
2018-03-03T04:16:51.592Z,976.42
2018-03-03T04:17:51.620Z,976.39
2018-03-03T04:18:51.643Z,976.41
2018-03-03T04:19:51.670Z,976.42
2018-03-03T04:20:51.690Z,976.36
2018-03-03T04:21:51.713Z,976.37
2018-03-03T04:22:51.739Z,976.38
2018-03-03T04:23:51.764Z,976.38
2018-03-03T04:24:51.788Z,976.34
2018-03-03T04:25:51.813Z,976.37
2018-03-03T04:26:51.836Z,976.37
2018-03-03T04:27:51.861Z,976.39
2018-03-03T04:28:51.884Z,976.36
2018-03-03T04:29:51.909Z,976.41
2018-03-03T04:30:51.934Z,976.41
2018-03-03T04:31:51.960Z,976.42
2018-03-03T04:32:51.982Z,976.38
2018-03-03T04:33:52.012Z,976.35
2018-03-03T04:34:52.032Z,976.37
2018-03-03T04:35:52.061Z,976.31
2018-03-03T04:36:52.080Z,976.32
2018-03-03T04:37:52.104Z,976.33
2018-03-03T04:38:52.136Z,976.29
2018-03-03T04:39:52.155Z,976.30
2018-03-03T04:40:52.179Z,976.27
2018-03-03T04:41:52.202Z,976.26
2018-03-03T04:42:52.226Z,976.26
2018-03-03T04:43:52.258Z,976.31
2018-03-03T04:44:52.276Z,976.32
2018-03-03T04:45:52.300Z,976.31
2018-03-03T04:46:52.326Z,976.27
2018-03-03T04:47:52.349Z,976.22
2018-03-03T04:48:52.372Z,976.24
2018-03-03T04:49:52.401Z,976.24
2018-03-03T04:50:52.422Z,976.23
2018-03-03T04:51:52.447Z,976.17
2018-03-03T04:52:52.473Z,976.17
2018-03-03T04:53:52.494Z,976.24
2018-03-03T04:54:52.520Z,976.22
2018-03-03T04:55:52.543Z,976.22
2018-03-03T04:56:52.568Z,976.22
2018-03-03T04:57:52.592Z,976.21
2018-03-03T04:58:52.617Z,976.22
2018-03-03T04:59:52.642Z,976.18
2018-03-03T05:00:52.665Z,976.17
2018-03-03T05:01:52.690Z,976.13
2018-03-03T05:02:52.714Z,976.15
2018-03-03T05:03:52.738Z,976.11
2018-03-03T05:04:52.763Z,976.11
2018-03-03T05:05:52.787Z,976.16
2018-03-03T05:06:52.810Z,976.16
2018-03-03T05:07:52.837Z,976.12
2018-03-03T05:08:52.860Z,976.11
2018-03-03T05:09:52.886Z,976.11
2018-03-03T05:10:52.910Z,976.12
2018-03-03T05:11:52.934Z,976.14
2018-03-03T05:12:52.956Z,976.12
2018-03-03T05:13:52.981Z,976.08
2018-03-03T05:14:53.005Z,976.01
2018-03-03T05:15:53.031Z,976.06
2018-03-03T05:16:53.055Z,976.02
2018-03-03T05:17:53.079Z,976.11
2018-03-03T05:18:53.104Z,976.13
2018-03-03T05:19:53.128Z,976.11
2018-03-03T05:20:53.152Z,976.15
2018-03-03T05:21:53.176Z,976.08
2018-03-03T05:22:53.199Z,976.07
2018-03-03T05:23:53.227Z,976.08
2018-03-03T05:24:53.251Z,976.08
2018-03-03T05:25:53.274Z,976.03
2018-03-03T05:26:53.300Z,976.08
2018-03-03T05:27:53.323Z,976.00
2018-03-03T05:28:53.347Z,976.06
2018-03-03T05:29:53.373Z,976.03
2018-03-03T05:30:53.397Z,976.00
2018-03-03T05:31:53.421Z,976.04
2018-03-03T05:32:53.443Z,976.03
2018-03-03T05:33:53.469Z,975.95
2018-03-03T05:34:53.493Z,976.01
2018-03-03T05:35:53.519Z,975.93
2018-03-03T05:36:53.542Z,975.97
2018-03-03T05:37:53.567Z,975.96
2018-03-03T05:38:53.590Z,975.99
2018-03-03T05:39:53.615Z,975.91
2018-03-03T05:40:53.639Z,975.87
2018-03-03T05:41:53.664Z,975.90
2018-03-03T05:42:53.689Z,975.89
2018-03-03T05:43:53.717Z,975.77
2018-03-03T05:44:53.737Z,975.81
2018-03-03T05:45:53.761Z,975.81
2018-03-03T05:46:53.785Z,975.76
2018-03-03T05:47:53.812Z,975.75
2018-03-03T05:48:53.835Z,975.72
2018-03-03T05:49:53.860Z,975.78
2018-03-03T05:50:53.885Z,975.80
2018-03-03T05:51:53.910Z,975.80
2018-03-03T05:52:53.932Z,975.78
2018-03-03T05:53:53.956Z,975.78
2018-03-03T05:54:53.980Z,975.82
2018-03-03T05:55:54.006Z,975.79
2018-03-03T05:56:54.030Z,975.83
2018-03-03T05:57:54.055Z,975.85
2018-03-03T05:58:54.078Z,975.88
2018-03-03T05:59:54.102Z,975.84
2018-03-03T06:00:54.128Z,975.91
2018-03-03T06:01:54.155Z,975.85
2018-03-03T06:02:54.176Z,975.87
2018-03-03T06:03:54.201Z,975.86
2018-03-03T06:04:54.225Z,975.85
2018-03-03T06:05:54.252Z,975.83
2018-03-03T06:06:54.274Z,975.80
2018-03-03T06:07:54.297Z,975.78
2018-03-03T06:08:54.322Z,975.81
2018-03-03T06:09:54.347Z,975.77
2018-03-03T06:10:54.372Z,975.82
2018-03-03T06:11:54.396Z,975.78
2018-03-03T06:12:54.419Z,975.75
2018-03-03T06:13:54.445Z,975.77
2018-03-03T06:14:54.470Z,975.80
2018-03-03T06:15:54.495Z,975.79
2018-03-03T06:16:54.518Z,975.81
2018-03-03T06:17:54.543Z,975.82
2018-03-03T06:18:54.567Z,975.83
2018-03-03T06:19:54.592Z,975.87
2018-03-03T06:20:54.617Z,975.83
2018-03-03T06:21:54.640Z,975.87
2018-03-03T06:22:54.666Z,975.88
2018-03-03T06:23:54.690Z,975.91
2018-03-03T06:24:54.715Z,975.91
2018-03-03T06:25:54.737Z,975.93
2018-03-03T06:26:54.764Z,975.92
2018-03-03T06:27:54.787Z,975.96
2018-03-03T06:28:54.817Z,975.96
2018-03-03T06:29:54.837Z,975.93
2018-03-03T06:30:54.863Z,975.95
2018-03-03T06:31:54.885Z,975.91
2018-03-03T06:32:54.909Z,975.89
2018-03-03T06:33:54.935Z,975.90
2018-03-03T06:34:54.960Z,975.89
2018-03-03T06:35:54.985Z,975.88
2018-03-03T06:36:55.009Z,975.90
2018-03-03T06:37:55.033Z,975.88
2018-03-03T06:38:55.059Z,975.94
2018-03-03T06:39:55.082Z,975.89
2018-03-03T06:40:55.107Z,975.93
2018-03-03T06:41:55.132Z,975.88
2018-03-03T06:42:55.155Z,975.94
2018-03-03T06:43:55.181Z,975.91
2018-03-03T06:44:55.204Z,975.91
2018-03-03T06:45:55.231Z,975.92
2018-03-03T06:46:55.260Z,975.86
2018-03-03T06:47:55.280Z,975.88
2018-03-03T06:48:55.310Z,975.91
2018-03-03T06:49:55.329Z,975.82
2018-03-03T06:50:55.354Z,975.83
2018-03-03T06:51:55.385Z,975.82
2018-03-03T06:52:55.403Z,975.82
2018-03-03T06:53:55.426Z,975.85
2018-03-03T06:54:55.452Z,975.85
2018-03-03T06:55:55.477Z,975.89
2018-03-03T06:56:55.501Z,975.92
2018-03-03T06:57:55.526Z,975.91
2018-03-03T06:58:55.551Z,975.91
2018-03-03T06:59:55.576Z,975.95
2018-03-03T07:00:55.599Z,976.00
2018-03-03T07:01:55.624Z,976.00
2018-03-03T07:02:55.650Z,975.95
2018-03-03T07:03:55.674Z,975.94
2018-03-03T07:04:55.700Z,975.99
2018-03-03T07:05:55.723Z,976.01
2018-03-03T07:06:55.748Z,976.05
2018-03-03T07:07:55.774Z,976.07
2018-03-03T07:08:55.798Z,976.08
2018-03-03T07:09:55.822Z,976.07
2018-03-03T07:10:55.847Z,976.11
2018-03-03T07:11:55.874Z,976.10
2018-03-03T07:12:55.896Z,976.09
2018-03-03T07:13:55.921Z,976.07
2018-03-03T07:14:55.947Z,976.09
2018-03-03T07:15:55.975Z,976.10
2018-03-03T07:16:55.994Z,976.11
2018-03-03T07:17:56.020Z,976.12
2018-03-03T07:18:56.045Z,976.14
2018-03-03T07:19:56.070Z,976.13
2018-03-03T07:20:56.095Z,976.13
2018-03-03T07:21:56.119Z,976.18
2018-03-03T07:22:56.144Z,976.18
2018-03-03T07:23:56.169Z,976.13
2018-03-03T07:24:56.193Z,976.17
2018-03-03T07:25:56.217Z,976.16
2018-03-03T07:26:56.248Z,976.16
2018-03-03T07:27:56.269Z,976.21
2018-03-03T07:28:56.292Z,976.12
2018-03-03T07:29:56.318Z,976.18
2018-03-03T07:30:56.343Z,976.16
2018-03-03T07:31:56.367Z,976.17
2018-03-03T07:32:56.391Z,976.16
2018-03-03T07:33:56.417Z,976.16
2018-03-03T07:34:56.442Z,976.12
2018-03-03T07:35:56.471Z,976.14
2018-03-03T07:36:56.491Z,976.13
2018-03-03T07:37:56.515Z,976.14
2018-03-03T07:38:56.540Z,976.13
2018-03-03T07:39:56.565Z,976.12
2018-03-03T07:40:56.591Z,976.16
2018-03-03T07:41:56.614Z,976.15
2018-03-03T07:42:56.641Z,976.12
2018-03-03T07:44:29.871Z,976.08
2018-03-03T07:44:56.688Z,976.07
2018-03-03T07:45:56.711Z,976.10
2018-03-03T07:46:56.737Z,976.15
2018-03-03T07:47:56.762Z,976.12
2018-03-03T07:48:56.790Z,976.08
2018-03-03T07:49:56.812Z,976.13
2018-03-03T07:50:56.836Z,976.13
2018-03-03T07:51:56.861Z,976.10
2018-03-03T07:52:56.884Z,976.04
2018-03-03T07:53:56.910Z,976.04
2018-03-03T07:54:56.936Z,976.02
2018-03-03T07:55:56.960Z,976.04
2018-03-03T07:56:56.984Z,976.03
2018-03-03T07:57:57.009Z,976.02
2018-03-03T07:58:57.038Z,975.99
2018-03-03T07:59:57.059Z,975.99
2018-03-03T08:00:57.083Z,975.90
2018-03-03T08:01:57.108Z,975.94
2018-03-03T08:02:57.133Z,975.87
2018-03-03T08:03:57.158Z,975.88
2018-03-03T08:04:57.183Z,975.93
2018-03-03T08:05:57.208Z,975.93
2018-03-03T08:06:57.234Z,975.90
2018-03-03T08:07:57.259Z,975.96
2018-03-03T08:08:57.283Z,975.95
2018-03-03T08:09:57.308Z,976.00
2018-03-03T08:10:57.334Z,976.10
2018-03-03T08:11:57.359Z,976.10
2018-03-03T08:12:57.384Z,976.09
2018-03-03T08:13:57.410Z,976.11
2018-03-03T08:14:57.434Z,976.10
2018-03-03T08:15:57.460Z,976.09
2018-03-03T08:16:57.483Z,976.06
2018-03-03T08:17:57.509Z,976.06
2018-03-03T08:18:57.536Z,975.99
2018-03-03T08:19:57.558Z,976.00
2018-03-03T08:20:57.587Z,975.97
2018-03-03T08:21:57.609Z,975.98
2018-03-03T08:22:57.633Z,975.99
2018-03-03T08:23:57.659Z,975.99
2018-03-03T08:24:57.683Z,975.96
2018-03-03T08:25:57.710Z,975.93
2018-03-03T08:26:57.733Z,975.92
2018-03-03T08:27:57.759Z,975.95
2018-03-03T08:28:57.784Z,975.94
2018-03-03T08:29:57.809Z,975.94
2018-03-03T08:30:57.835Z,975.96
2018-03-03T08:31:57.860Z,975.95
2018-03-03T08:32:57.884Z,975.96
2018-03-03T08:33:57.911Z,975.97
2018-03-03T08:34:57.936Z,975.93
2018-03-03T08:35:57.962Z,975.89
2018-03-03T08:36:57.986Z,975.92
2018-03-03T08:37:58.012Z,975.89
2018-03-03T08:38:58.037Z,975.85
2018-03-03T08:39:58.063Z,975.88
2018-03-03T08:40:58.089Z,975.80
2018-03-03T08:41:58.113Z,975.84
2018-03-03T08:42:58.139Z,975.86
2018-03-03T08:43:58.222Z,975.85
2018-03-03T08:44:58.189Z,975.87
2018-03-03T08:45:58.215Z,975.77
2018-03-03T08:46:58.242Z,975.84
2018-03-03T08:47:58.269Z,975.85
2018-03-03T08:48:58.292Z,975.84
2018-03-03T08:49:58.319Z,975.86
2018-03-03T08:50:58.345Z,975.84
2018-03-03T08:51:58.372Z,975.85
2018-03-03T08:52:58.416Z,975.82
2018-03-03T08:53:58.426Z,975.78
2018-03-03T08:54:58.450Z,975.81
2018-03-03T08:55:58.476Z,975.79
2018-03-03T08:56:58.502Z,975.78
2018-03-03T08:57:58.531Z,975.83
2018-03-03T08:58:58.555Z,975.78
2018-03-03T08:59:58.583Z,975.81
2018-03-03T09:00:58.609Z,975.80
2018-03-03T09:01:58.636Z,975.79
2018-03-03T09:02:58.671Z,975.77
2018-03-03T09:03:58.689Z,975.80
2018-03-03T09:04:58.720Z,975.77
2018-03-03T09:05:58.743Z,975.70
2018-03-03T09:06:58.770Z,975.69
2018-03-03T09:07:58.798Z,975.64
2018-03-03T09:08:58.823Z,975.67
2018-03-03T09:09:58.851Z,975.64
2018-03-03T09:10:58.879Z,975.59
2018-03-03T09:11:58.906Z,975.53
2018-03-03T09:12:58.932Z,975.50
2018-03-03T09:13:58.964Z,975.56
2018-03-03T09:14:58.986Z,975.56
2018-03-03T09:15:59.014Z,975.53
2018-03-03T09:16:59.040Z,975.53
2018-03-03T09:17:59.067Z,975.51
2018-03-03T09:18:59.095Z,975.48
2018-03-03T09:19:59.121Z,975.50
2018-03-03T09:20:59.148Z,975.56
2018-03-03T09:21:59.177Z,975.51
2018-03-03T09:22:59.203Z,975.48
2018-03-03T09:23:59.230Z,975.48
2018-03-03T09:24:59.255Z,975.44
2018-03-03T09:25:59.283Z,975.29
2018-03-03T09:26:59.315Z,975.34
2018-03-03T09:27:59.338Z,975.34
2018-03-03T09:28:59.368Z,975.23
2018-03-03T09:29:59.393Z,975.23
2018-03-03T09:30:59.421Z,975.23
2018-03-03T09:31:59.447Z,975.21
2018-03-03T09:32:59.473Z,975.26
2018-03-03T09:33:59.502Z,975.26
2018-03-03T09:34:59.529Z,975.28
2018-03-03T09:35:59.556Z,975.22
2018-03-03T09:36:59.581Z,975.26
2018-03-03T09:37:59.609Z,975.31
2018-03-03T09:38:59.639Z,975.31
2018-03-03T09:39:59.664Z,975.28
2018-03-03T09:40:59.691Z,975.36
2018-03-03T09:41:59.717Z,975.36
2018-03-03T09:42:59.744Z,975.40
2018-03-03T09:43:59.772Z,975.39
2018-03-03T09:44:59.797Z,975.40
2018-03-03T09:45:59.825Z,975.42
2018-03-03T09:46:59.854Z,975.37
2018-03-03T09:47:59.879Z,975.45
2018-03-03T09:48:59.905Z,975.43
2018-03-03T09:49:59.931Z,975.45
2018-03-03T09:50:59.959Z,975.47
2018-03-03T09:51:59.989Z,975.47
2018-03-03T09:53:00.012Z,975.53
2018-03-03T09:54:00.039Z,975.53
2018-03-03T09:55:00.066Z,975.54
2018-03-03T09:56:00.093Z,975.61
2018-03-03T09:57:00.119Z,975.54
2018-03-03T09:58:00.146Z,975.58
2018-03-03T09:59:00.171Z,975.64
2018-03-03T10:00:00.199Z,975.60
2018-03-03T10:01:00.224Z,975.58
2018-03-03T10:02:06.293Z,975.57
2018-03-03T10:03:00.277Z,975.65
2018-03-03T10:04:00.304Z,975.62
2018-03-03T10:05:00.330Z,975.66
2018-03-03T10:06:00.356Z,975.65
2018-03-03T10:07:00.382Z,975.61
2018-03-03T10:08:00.408Z,975.66
2018-03-03T10:09:00.436Z,975.69
2018-03-03T10:10:00.466Z,975.67
2018-03-03T10:11:00.489Z,975.64
2018-03-03T10:12:00.515Z,975.69
2018-03-03T10:13:00.541Z,975.69
2018-03-03T10:14:00.569Z,975.70
2018-03-03T10:15:00.596Z,975.71
2018-03-03T10:16:00.623Z,975.72
2018-03-03T10:17:00.649Z,975.78
2018-03-03T10:18:00.676Z,975.75
2018-03-03T10:19:00.702Z,975.70
2018-03-03T10:20:00.729Z,975.76
2018-03-03T10:21:00.755Z,975.77
2018-03-03T10:22:00.784Z,975.72
2018-03-03T10:23:00.811Z,975.69
2018-03-03T10:24:00.837Z,975.68
2018-03-03T10:25:00.868Z,975.68
2018-03-03T10:26:00.895Z,975.66
2018-03-03T10:27:00.919Z,975.65
2018-03-03T10:28:00.948Z,975.71
2018-03-03T10:29:00.972Z,975.68
2018-03-03T10:30:01.006Z,975.71
2018-03-03T10:31:01.029Z,975.69
2018-03-03T10:32:01.056Z,975.72
2018-03-03T10:33:01.142Z,975.74
2018-03-03T10:34:01.111Z,975.74
2018-03-03T10:35:01.138Z,975.77
2018-03-03T10:36:01.167Z,975.76
2018-03-03T10:37:01.194Z,975.74
2018-03-03T10:38:01.221Z,975.77
2018-03-03T10:39:01.286Z,975.76
2018-03-03T10:40:01.276Z,975.75
2018-03-03T10:41:01.304Z,975.78
2018-03-03T10:42:01.331Z,975.77
2018-03-03T10:43:01.360Z,975.84
2018-03-03T10:44:01.388Z,975.78
2018-03-03T10:45:01.415Z,975.80
2018-03-03T10:46:01.442Z,975.86
2018-03-03T10:47:01.470Z,975.83
2018-03-03T10:48:01.495Z,975.82
2018-03-03T10:49:01.523Z,975.83
2018-03-03T10:50:01.550Z,975.85
2018-03-03T10:51:01.577Z,975.89
2018-03-03T10:52:01.605Z,975.90
2018-03-03T10:53:01.631Z,975.92
2018-03-03T10:54:01.662Z,975.95
2018-03-03T10:55:01.687Z,975.96
2018-03-03T10:56:01.713Z,975.99
2018-03-03T10:57:01.743Z,976.01
2018-03-03T10:58:01.766Z,976.03
2018-03-03T10:59:01.793Z,975.96
2018-03-03T11:00:01.821Z,975.92
2018-03-03T11:01:01.847Z,975.94
2018-03-03T11:02:01.875Z,975.92
2018-03-03T11:03:01.902Z,975.92
2018-03-03T11:04:01.948Z,975.93
2018-03-03T11:05:01.955Z,975.91
2018-03-03T11:06:01.981Z,975.89
2018-03-03T11:07:02.009Z,975.83
2018-03-03T11:08:02.035Z,975.91
2018-03-03T11:09:02.061Z,975.88
2018-03-03T11:10:02.089Z,975.90
2018-03-03T11:11:02.117Z,975.91
2018-03-03T11:12:02.142Z,975.89
2018-03-03T11:13:02.168Z,975.90
2018-03-03T11:14:02.195Z,975.87
2018-03-03T11:15:02.224Z,975.87
2018-03-03T11:16:02.252Z,975.90
2018-03-03T11:17:02.331Z,975.90
2018-03-03T11:18:02.303Z,975.90
2018-03-03T11:19:02.330Z,975.90
2018-03-03T11:20:02.358Z,975.93
2018-03-03T11:21:02.383Z,975.93
2018-03-03T11:22:02.410Z,975.92
2018-03-03T11:23:02.438Z,975.98
2018-03-03T11:24:02.466Z,975.99
2018-03-03T11:25:02.492Z,976.04
2018-03-03T11:26:02.517Z,976.02
2018-03-03T11:27:02.545Z,976.06
2018-03-03T11:28:02.573Z,976.06
2018-03-03T11:29:02.599Z,976.09
2018-03-03T11:30:02.627Z,976.11
2018-03-03T11:31:02.652Z,976.19
2018-03-03T11:32:02.681Z,976.19
2018-03-03T11:33:02.706Z,976.19
2018-03-03T11:34:02.736Z,976.17
2018-03-03T11:35:02.761Z,976.18
2018-03-03T11:36:02.787Z,976.18
2018-03-03T11:37:02.814Z,976.16
2018-03-03T11:38:02.840Z,976.19
2018-03-03T11:39:02.867Z,976.20
2018-03-03T11:40:02.893Z,976.21
2018-03-03T11:41:02.919Z,976.33
2018-03-03T11:42:02.944Z,976.31
2018-03-03T11:43:02.972Z,976.36
2018-03-03T11:44:02.999Z,976.34
2018-03-03T11:45:03.024Z,976.38
2018-03-03T11:46:03.051Z,976.42
2018-03-03T11:47:03.077Z,976.42
2018-03-03T11:48:03.104Z,976.44
2018-03-03T11:49:03.129Z,976.46
2018-03-03T11:50:03.155Z,976.44
2018-03-03T11:51:03.181Z,976.41
2018-03-03T11:52:03.208Z,976.41
2018-03-03T11:53:03.293Z,976.40
2018-03-03T11:54:03.259Z,976.41
2018-03-03T11:55:03.285Z,976.37
2018-03-03T11:56:03.334Z,976.39
2018-03-03T11:57:03.356Z,976.41
2018-03-03T11:58:03.386Z,976.40
2018-03-03T11:59:03.406Z,976.41
2018-03-03T12:00:03.430Z,976.41
2018-03-03T12:01:03.440Z,976.36
2018-03-03T12:02:03.465Z,976.38
2018-03-03T12:03:03.492Z,976.40
2018-03-03T12:04:03.518Z,976.43
2018-03-03T12:05:03.550Z,976.45
2018-03-03T12:06:03.569Z,976.48
2018-03-03T12:07:03.598Z,976.50
2018-03-03T12:08:03.621Z,976.50
2018-03-03T12:09:03.648Z,976.48
2018-03-03T12:10:03.676Z,976.51
2018-03-03T12:11:03.700Z,976.57
2018-03-03T12:12:03.726Z,976.52
2018-03-03T12:13:03.749Z,976.58
2018-03-03T12:14:03.775Z,976.58
2018-03-03T12:15:03.801Z,976.62
2018-03-03T12:16:03.827Z,976.60
2018-03-03T12:17:03.854Z,976.59
2018-03-03T12:18:03.878Z,976.58
2018-03-03T12:19:03.906Z,976.54
2018-03-03T12:20:03.933Z,976.58
2018-03-03T12:21:03.957Z,976.59
2018-03-03T12:22:03.987Z,976.57
2018-03-03T12:23:04.008Z,976.60
2018-03-03T12:24:04.035Z,976.68
2018-03-03T12:25:04.061Z,976.68
2018-03-03T12:26:04.114Z,976.62
2018-03-03T12:27:04.139Z,976.67
2018-03-03T12:28:04.140Z,976.63
2018-03-03T12:29:04.187Z,976.60